createdAt,value
2018-06-18T00:01:10.854Z,100746.58
2018-06-18T00:03:38.324Z,100752.20
2018-06-18T00:06:06.294Z,100755.33
2018-06-18T00:08:34.261Z,100759.19
2018-06-18T00:11:03.897Z,100760.50
2018-06-18T00:13:31.378Z,100749.97
2018-06-18T00:15:58.326Z,100753.16
2018-06-18T00:18:25.865Z,100756.28
2018-06-18T00:20:56.242Z,100750.43
2018-06-18T00:23:23.187Z,100752.93
2018-06-18T00:25:53.133Z,100755.52
2018-06-18T00:28:20.079Z,100749.58
2018-06-18T00:30:47.002Z,100758.51
2018-06-18T00:33:13.871Z,100762.81
2018-06-18T00:35:41.855Z,100768.56
2018-06-18T00:38:11.804Z,100763.53
2018-06-18T00:40:39.778Z,100755.29
2018-06-18T00:43:07.612Z,100754.97
2018-06-18T00:45:34.482Z,100759.95
2018-06-18T00:48:02.391Z,100760.45
2018-06-18T00:50:29.874Z,100770.78
2018-06-18T00:52:58.354Z,100772.63
2018-06-18T00:55:37.706Z,100777.17
2018-06-18T00:58:05.650Z,100777.23
2018-06-18T01:00:34.446Z,100781.22
2018-06-18T01:03:03.390Z,100781.62
2018-06-18T01:05:31.888Z,100782.81
2018-06-18T01:07:59.359Z,100787.67
2018-06-18T01:10:26.894Z,100781.62
2018-06-18T01:12:54.387Z,100783.13
2018-06-18T01:15:21.311Z,100776.59
2018-06-18T01:17:48.186Z,100779.18
2018-06-18T01:20:15.878Z,100781.13
2018-06-18T01:22:47.018Z,100780.59
2018-06-18T01:25:14.921Z,100767.72
2018-06-18T01:27:41.838Z,100762.95
2018-06-18T01:30:09.491Z,100767.57
2018-06-18T01:32:37.438Z,100782.01
2018-06-18T01:35:05.339Z,100782.08
2018-06-18T01:37:36.038Z,100791.13
2018-06-18T01:40:05.062Z,100780.38
2018-06-18T01:42:33.979Z,100773.45
2018-06-18T01:45:01.953Z,100778.06
2018-06-18T01:47:28.915Z,100786.37
2018-06-18T01:49:55.826Z,100793.00
2018-06-18T01:52:25.689Z,100794.49
2018-06-18T01:54:52.762Z,100792.30
2018-06-18T01:57:19.654Z,100791.28
2018-06-18T01:59:47.385Z,100781.79
2018-06-18T02:02:21.085Z,100784.83
2018-06-18T02:04:48.039Z,100779.77
2018-06-18T02:07:15.010Z,100771.10
2018-06-18T02:09:41.967Z,100759.42
2018-06-18T02:12:08.889Z,100761.20
2018-06-18T02:14:38.855Z,100766.14
2018-06-18T02:17:06.381Z,100766.81
2018-06-18T02:19:33.892Z,100767.16
2018-06-18T02:22:01.733Z,100773.52
2018-06-18T02:24:29.419Z,100767.16
2018-06-18T02:27:03.045Z,100764.67
2018-06-18T02:29:38.658Z,100767.05
2018-06-18T02:32:12.222Z,100768.38
2018-06-18T02:34:44.987Z,100770.88
2018-06-18T02:37:20.635Z,100762.00
2018-06-18T02:39:54.279Z,100772.55
2018-06-18T02:42:21.151Z,100771.92
2018-06-18T02:44:48.922Z,100762.09
2018-06-18T02:47:15.778Z,100742.22
2018-06-18T02:49:42.703Z,100736.97
2018-06-18T02:52:09.602Z,100743.52
2018-06-18T02:54:40.454Z,100758.93
2018-06-18T02:57:08.795Z,100759.75
2018-06-18T02:59:35.699Z,100755.53
2018-06-18T03:02:02.665Z,100756.20
2018-06-18T03:04:32.480Z,100756.88
2018-06-18T03:06:59.942Z,100762.75
2018-06-18T03:09:26.791Z,100767.19
2018-06-18T03:11:53.792Z,100772.77
2018-06-18T03:14:22.459Z,100781.12
2018-06-18T03:16:49.949Z,100785.72
2018-06-18T03:19:22.494Z,100788.48
2018-06-18T03:21:56.582Z,100783.73
2018-06-18T03:24:33.175Z,100787.98
2018-06-18T03:27:05.690Z,100787.16
2018-06-18T03:29:34.806Z,100797.14
2018-06-18T03:32:09.015Z,100803.37
2018-06-18T03:34:35.890Z,100796.96
2018-06-18T03:37:05.896Z,100794.80
2018-06-18T03:39:34.438Z,100791.69
2018-06-18T03:42:01.905Z,100797.60
2018-06-18T03:44:39.032Z,100799.66
2018-06-18T03:47:20.530Z,100799.64
2018-06-18T03:49:47.968Z,100799.57
2018-06-18T03:52:14.930Z,100797.95
2018-06-18T03:54:41.850Z,100793.88
2018-06-18T03:57:08.822Z,100793.10
2018-06-18T03:59:36.502Z,100795.72
2018-06-18T04:02:15.589Z,100791.24
2018-06-18T04:04:58.619Z,100797.31
2018-06-18T04:07:31.783Z,100786.92
2018-06-18T04:10:04.565Z,100793.09
2018-06-18T04:12:31.590Z,100796.30
2018-06-18T04:14:58.515Z,100800.39
2018-06-18T04:17:25.466Z,100786.50
2018-06-18T04:19:53.498Z,100791.98
2018-06-18T04:22:21.069Z,100793.19
2018-06-18T04:24:48.009Z,100786.95
2018-06-18T04:27:14.997Z,100782.50
2018-06-18T04:29:45.054Z,100785.63
2018-06-18T04:32:11.994Z,100795.44
2018-06-18T04:34:48.946Z,100788.27
2018-06-18T04:37:20.442Z,100795.05
2018-06-18T04:39:47.462Z,100797.03
2018-06-18T04:42:20.683Z,100789.03
2018-06-18T04:44:55.327Z,100782.71
2018-06-18T04:47:28.023Z,100792.78
2018-06-18T04:50:00.643Z,100792.52
2018-06-18T04:52:29.749Z,100791.39
2018-06-18T04:54:59.758Z,100792.27
2018-06-18T04:57:26.768Z,100786.02
2018-06-18T04:59:59.061Z,100789.91
2018-06-18T05:02:25.998Z,100799.66
2018-06-18T05:04:53.989Z,100794.94
2018-06-18T05:07:22.256Z,100801.72
2018-06-18T05:10:04.691Z,100802.56
2018-06-18T05:12:31.631Z,100805.35
2018-06-18T05:14:58.994Z,100803.80
2018-06-18T05:17:28.750Z,100800.35
2018-06-18T05:19:56.701Z,100798.22
2018-06-18T05:22:24.586Z,100796.52
2018-06-18T05:24:54.627Z,100800.48
2018-06-18T05:27:32.231Z,100801.77
2018-06-18T05:30:02.443Z,100802.70
2018-06-18T05:32:30.022Z,100807.16
2018-06-18T05:34:57.954Z,100807.56
2018-06-18T05:37:33.927Z,100810.28
2018-06-18T05:40:03.620Z,100809.66
2018-06-18T05:42:32.479Z,100812.14
2018-06-18T05:45:00.090Z,100810.86
2018-06-18T05:47:27.046Z,100809.23
2018-06-18T05:49:53.982Z,100808.41
2018-06-18T05:52:21.563Z,100825.64
2018-06-18T05:54:52.506Z,100821.89
2018-06-18T05:57:20.445Z,100824.72
2018-06-18T05:59:49.082Z,100821.69
2018-06-18T06:02:19.026Z,100828.22
2018-06-18T06:04:45.941Z,100827.72
2018-06-18T06:07:13.580Z,100829.17
2018-06-18T06:09:40.509Z,100833.95
2018-06-18T06:12:10.631Z,100829.60
2018-06-18T06:14:38.526Z,100836.92
2018-06-18T06:17:06.091Z,100833.36
2018-06-18T06:19:33.550Z,100832.27
2018-06-18T06:22:01.554Z,100841.98
2018-06-18T06:24:31.486Z,100839.34
2018-06-18T06:27:04.504Z,100842.31
2018-06-18T06:29:34.877Z,100842.55
2018-06-18T06:32:02.587Z,100835.73
2018-06-18T06:34:29.886Z,100844.23
2018-06-18T06:37:02.959Z,100837.33
2018-06-18T06:39:30.622Z,100841.22
2018-06-18T06:42:10.798Z,100847.95
2018-06-18T06:44:38.611Z,100834.77
2018-06-18T06:47:07.018Z,100826.16
2018-06-18T06:49:36.566Z,100838.59
2018-06-18T06:52:04.566Z,100836.83
2018-06-18T06:54:31.542Z,100837.20
2018-06-18T06:56:59.047Z,100833.52
2018-06-18T06:59:25.981Z,100840.55
2018-06-18T07:01:57.603Z,100843.41
2018-06-18T07:04:25.098Z,100846.16
2018-06-18T07:06:51.998Z,100852.45
2018-06-18T07:09:20.634Z,100852.38
2018-06-18T07:11:47.586Z,100850.44
2018-06-18T07:14:15.081Z,100863.29
2018-06-18T07:16:43.595Z,100859.46
2018-06-18T07:19:12.160Z,100858.89
2018-06-18T07:21:39.614Z,100860.33
2018-06-18T07:24:10.082Z,100862.88
2018-06-18T07:26:37.022Z,100859.62
2018-06-18T07:29:04.049Z,100860.44
2018-06-18T07:31:34.634Z,100855.58
2018-06-18T07:34:01.570Z,100859.17
2018-06-18T07:36:28.539Z,100855.40
2018-06-18T07:38:55.458Z,100854.91
2018-06-18T07:41:27.071Z,100861.98
2018-06-18T07:43:54.625Z,100848.92
2018-06-18T07:46:22.105Z,100848.28
2018-06-18T07:48:49.051Z,100858.05
2018-06-18T07:51:16.021Z,100864.47
2018-06-18T07:53:43.586Z,100853.00
2018-06-18T07:56:11.178Z,100859.12
2018-06-18T07:58:38.703Z,100861.31
2018-06-18T08:01:08.678Z,100858.78
2018-06-18T08:03:36.181Z,100853.00
2018-06-18T08:06:06.353Z,100851.64
2018-06-18T08:08:34.138Z,100855.21
2018-06-18T08:11:01.090Z,100853.70
2018-06-18T08:13:28.637Z,100856.70
2018-06-18T08:15:56.142Z,100854.16
2018-06-18T08:18:23.098Z,100852.25
2018-06-18T08:20:50.111Z,100858.25
2018-06-18T08:23:17.610Z,100863.34
2018-06-18T08:25:45.495Z,100863.72
2018-06-18T08:28:12.446Z,100865.77
2018-06-18T08:30:39.420Z,100871.40
2018-06-18T08:33:07.431Z,100873.06
2018-06-18T08:35:36.169Z,100864.72
2018-06-18T08:38:03.838Z,100874.48
2018-06-18T08:40:30.738Z,100866.89
2018-06-18T08:42:58.609Z,100877.66
2018-06-18T08:45:25.598Z,100874.05
2018-06-18T08:47:52.517Z,100874.52
2018-06-18T08:50:25.997Z,100872.09
2018-06-18T08:52:59.802Z,100873.84
2018-06-18T08:55:32.377Z,100874.06
2018-06-18T08:58:05.014Z,100876.38
2018-06-18T09:00:37.764Z,100872.51
2018-06-18T09:03:10.683Z,100866.81
2018-06-18T09:05:42.184Z,100864.77
2018-06-18T09:08:11.794Z,100856.56
2018-06-18T09:10:39.863Z,100869.62
2018-06-18T09:13:07.666Z,100867.42
2018-06-18T09:15:34.630Z,100864.45
2018-06-18T09:18:01.597Z,100873.20
2018-06-18T09:20:31.611Z,100871.37
2018-06-18T09:22:59.200Z,100867.45
2018-06-18T09:25:26.169Z,100864.56
2018-06-18T09:27:53.114Z,100868.73
2018-06-18T09:30:20.665Z,100862.25
2018-06-18T09:32:47.607Z,100848.94
2018-06-18T09:35:14.598Z,100853.44
2018-06-18T09:37:41.579Z,100852.22
2018-06-18T09:40:08.539Z,100852.06
2018-06-18T09:42:35.426Z,100858.02
2018-06-18T09:45:03.075Z,100851.06
2018-06-18T09:47:30.906Z,100849.99
2018-06-18T09:50:03.610Z,100855.43
2018-06-18T09:52:36.254Z,100856.25
2018-06-18T09:55:08.903Z,100849.69
2018-06-18T09:57:42.710Z,100853.31
2018-06-18T10:00:26.550Z,100850.21
2018-06-18T10:02:59.666Z,100849.59
2018-06-18T10:05:32.766Z,100850.02
2018-06-18T10:07:59.718Z,100847.91
2018-06-18T10:10:28.230Z,100849.84
2018-06-18T10:12:58.186Z,100852.97
2018-06-18T10:15:28.178Z,100853.25
2018-06-18T10:17:56.671Z,100854.67
2018-06-18T10:20:26.618Z,100855.11
2018-06-18T10:22:53.542Z,100846.74
2018-06-18T10:25:20.575Z,100851.97
2018-06-18T10:27:47.467Z,100846.94
2018-06-18T10:30:14.431Z,100850.30
2018-06-18T10:32:51.399Z,100850.86
2018-06-18T10:35:26.499Z,100854.20
2018-06-18T10:37:59.167Z,100857.37
2018-06-18T10:40:31.779Z,100855.64
2018-06-18T10:43:04.438Z,100862.61
2018-06-18T10:45:33.246Z,100869.12
2018-06-18T10:48:00.193Z,100857.14
2018-06-18T10:50:28.795Z,100856.71
2018-06-18T10:52:55.747Z,100859.66
2018-06-18T10:55:22.723Z,100849.08
2018-06-18T10:57:49.698Z,100853.70
2018-06-18T11:00:20.506Z,100848.45
2018-06-18T11:02:47.530Z,100858.00
2018-06-18T11:05:15.524Z,100852.31
2018-06-18T11:07:44.358Z,100853.33
2018-06-18T11:10:11.357Z,100840.39
2018-06-18T11:12:38.246Z,100841.63
2018-06-18T11:15:09.098Z,100842.34
2018-06-18T11:17:41.826Z,100843.12
2018-06-18T11:20:14.486Z,100833.31
2018-06-18T11:22:47.409Z,100842.59
2018-06-18T11:25:20.212Z,100840.51
2018-06-18T11:27:47.155Z,100842.59
2018-06-18T11:30:14.150Z,100842.55
2018-06-18T11:32:41.059Z,100839.97
2018-06-18T11:35:08.030Z,100831.93
2018-06-18T11:37:41.389Z,100827.13
2018-06-18T11:40:09.199Z,100829.15
2018-06-18T11:42:36.143Z,100821.41
2018-06-18T11:45:03.138Z,100825.84
2018-06-18T11:47:30.791Z,100823.34
2018-06-18T11:49:57.837Z,100822.09
2018-06-18T11:52:25.726Z,100826.44
2018-06-18T11:54:52.910Z,100825.59
2018-06-18T11:57:19.903Z,100825.20
2018-06-18T11:59:52.674Z,100832.00
2018-06-18T12:02:25.336Z,100831.47
2018-06-18T12:04:59.130Z,100832.00
2018-06-18T12:07:31.841Z,100830.77
2018-06-18T12:09:59.850Z,100827.77
2018-06-18T12:12:26.803Z,100827.23
2018-06-18T12:14:53.758Z,100824.75
2018-06-18T12:17:20.699Z,100831.29
2018-06-18T12:19:48.292Z,100831.97
2018-06-18T12:22:16.038Z,100835.69
2018-06-18T12:24:42.199Z,100841.34
2018-06-18T12:27:21.658Z,100834.41
2018-06-18T12:29:48.618Z,100839.19
2018-06-18T12:32:15.563Z,100834.39
2018-06-18T12:34:44.556Z,100828.11
2018-06-18T12:37:13.278Z,100837.27
2018-06-18T12:39:43.178Z,100829.80
2018-06-18T12:42:10.773Z,100829.62
2018-06-18T12:44:47.095Z,100828.52
2018-06-18T12:47:19.835Z,100829.58
2018-06-18T12:49:52.530Z,100827.70
2018-06-18T12:52:25.087Z,100824.23
2018-06-18T12:55:02.669Z,100817.75
2018-06-18T12:57:30.386Z,100821.53
2018-06-18T12:59:57.392Z,100822.17
2018-06-18T13:02:28.258Z,100827.55
2018-06-18T13:04:58.271Z,100829.01
2018-06-18T13:07:25.911Z,100828.78
2018-06-18T13:09:54.618Z,100838.01
2018-06-18T13:12:21.562Z,100837.65
2018-06-18T13:14:50.301Z,100836.13
2018-06-18T13:17:17.869Z,100830.94
2018-06-18T13:22:07.208Z,100841.39
2018-06-18T13:24:35.076Z,100839.75
2018-06-18T13:27:08.038Z,100837.36
2018-06-18T13:29:35.807Z,100843.89
2018-06-18T13:32:03.722Z,100847.58
2018-06-18T13:34:31.339Z,100843.36
2018-06-18T13:37:04.033Z,100834.94
2018-06-18T13:39:37.615Z,100833.09
2018-06-18T13:42:13.430Z,100841.98
2018-06-18T13:44:46.174Z,100837.87
2018-06-18T13:47:18.834Z,100841.22
2018-06-18T13:49:54.206Z,100842.11
2018-06-18T13:52:27.439Z,100833.33
2018-06-18T13:54:55.854Z,100837.88
2018-06-18T13:57:24.338Z,100835.69
2018-06-18T13:59:54.490Z,100839.06
2018-06-18T14:02:23.513Z,100832.13
2018-06-18T14:04:54.226Z,100822.33
2018-06-18T14:07:21.162Z,100830.84
2018-06-18T14:09:48.835Z,100832.22
2018-06-18T14:12:15.767Z,100832.83
2018-06-18T14:14:44.734Z,100833.11
2018-06-18T14:17:13.759Z,100836.71
2018-06-18T14:19:48.360Z,100831.91
2018-06-18T14:22:15.862Z,100823.97
2018-06-18T14:24:43.046Z,100830.97
2018-06-18T14:27:10.002Z,100828.55
2018-06-18T14:29:47.434Z,100829.04
2018-06-18T14:32:36.902Z,100829.27
2018-06-18T14:35:09.718Z,100818.78
2018-06-18T14:37:44.224Z,100828.27
2018-06-18T14:40:13.129Z,100835.91
2018-06-18T14:42:40.093Z,100820.94
2018-06-18T14:45:07.813Z,100827.58
2018-06-18T14:47:34.859Z,100819.03
2018-06-18T14:50:01.881Z,100815.08
2018-06-18T14:52:29.102Z,100819.47
2018-06-18T14:54:56.066Z,100807.68
2018-06-18T14:58:18.540Z,100815.02
2018-06-18T15:00:45.477Z,100807.99
2018-06-18T15:03:12.514Z,100808.50
2018-06-18T15:05:41.067Z,100805.66
2018-06-18T15:08:08.026Z,100809.57
2018-06-18T15:10:40.826Z,100814.65
2018-06-18T15:13:09.677Z,100815.86
2018-06-18T15:15:42.527Z,100810.94
2018-06-18T15:18:09.487Z,100816.94
2018-06-18T15:20:47.640Z,100812.84
2018-06-18T15:23:14.664Z,100812.83
2018-06-18T15:25:44.482Z,100815.84
2018-06-18T15:28:11.380Z,100811.98
2018-06-18T15:30:38.493Z,100806.94
2018-06-18T15:33:05.476Z,100803.58
2018-06-18T15:35:32.462Z,100808.12
2018-06-18T15:38:01.402Z,100807.04
2018-06-18T15:40:28.955Z,100810.52
2018-06-18T15:42:57.013Z,100809.11
2018-06-18T15:45:23.902Z,100801.92
2018-06-18T15:47:50.860Z,100807.97
2018-06-18T15:50:17.822Z,100803.70
2018-06-18T15:52:46.810Z,100803.19
2018-06-18T15:55:16.754Z,100807.27
2018-06-18T15:57:45.480Z,100800.08
2018-06-18T16:00:12.978Z,100808.31
2018-06-18T16:02:39.902Z,100804.95
2018-06-18T16:05:06.837Z,100803.58
2018-06-18T16:07:38.426Z,100809.20
2018-06-18T16:10:05.341Z,100807.41
2018-06-18T16:12:32.314Z,100814.80
2018-06-18T16:15:00.634Z,100809.08
2018-06-18T16:17:31.751Z,100806.69
2018-06-18T16:20:00.773Z,100813.30
2018-06-18T16:22:28.294Z,100819.80
2018-06-18T16:24:55.282Z,100825.47
2018-06-18T16:27:22.145Z,100816.27
2018-06-18T16:29:49.122Z,100821.19
2018-06-18T16:32:16.038Z,100821.36
2018-06-18T16:34:57.450Z,100820.96
2018-06-18T16:37:24.474Z,100814.16
2018-06-18T16:39:54.441Z,100817.34
2018-06-18T16:42:21.374Z,100817.52
2018-06-18T16:44:49.011Z,100823.66
2018-06-18T16:47:15.946Z,100823.97
2018-06-18T16:49:42.925Z,100813.42
2018-06-18T16:52:09.819Z,100817.46
2018-06-18T16:54:39.834Z,100818.31
2018-06-18T16:57:07.483Z,100819.98
2018-06-18T16:59:35.437Z,100812.24
2018-06-18T17:02:02.415Z,100813.34
2018-06-18T17:04:29.333Z,100805.82
2018-06-18T17:06:56.291Z,100806.69
2018-06-18T17:09:26.225Z,100803.78
2018-06-18T17:11:53.170Z,100809.50
2018-06-18T17:14:20.134Z,100803.60
2018-06-18T17:16:47.913Z,100809.58
2018-06-18T17:19:15.390Z,100815.36
2018-06-18T17:21:42.354Z,100808.85
2018-06-18T17:24:10.018Z,100811.55
2018-06-18T17:26:36.965Z,100808.94
2018-06-18T17:29:03.982Z,100808.22
2018-06-18T17:31:30.934Z,100809.51
2018-06-18T17:33:58.466Z,100800.47
2018-06-18T17:36:25.394Z,100807.84
2018-06-18T17:38:52.389Z,100814.02
2018-06-18T17:41:19.382Z,100806.48
2018-06-18T17:43:47.014Z,100803.01
2018-06-18T17:46:13.970Z,100804.14
2018-06-18T17:48:41.028Z,100801.36
2018-06-18T17:51:09.005Z,100798.88
2018-06-18T17:53:36.478Z,100790.88
2018-06-18T17:56:05.486Z,100791.92
2018-06-18T17:58:32.450Z,100789.87
2018-06-18T18:00:59.395Z,100790.08
2018-06-18T18:03:26.975Z,100784.20
2018-06-18T18:05:54.985Z,100783.34
2018-06-18T18:08:24.890Z,100786.17
2018-06-18T18:10:51.822Z,100777.23
2018-06-18T18:13:19.574Z,100777.27
2018-06-18T18:15:46.509Z,100776.52
2018-06-18T18:18:13.477Z,100776.29
2018-06-18T18:20:40.374Z,100785.28
2018-06-18T18:23:07.399Z,100783.56
2018-06-18T18:25:35.114Z,100783.77
2018-06-18T18:28:02.110Z,100779.05
2018-06-18T18:30:29.046Z,100776.05
2018-06-18T18:32:56.059Z,100773.33
2018-06-18T18:35:23.047Z,100777.98
2018-06-18T18:37:51.070Z,100782.45
2018-06-18T18:40:20.044Z,100782.69
2018-06-18T18:42:48.538Z,100781.66
2018-06-18T18:45:19.438Z,100791.10
2018-06-18T18:47:49.294Z,100783.13
2018-06-18T18:50:17.303Z,100784.88
2018-06-18T18:52:45.274Z,100787.88
2018-06-18T18:55:37.410Z,100781.91
2018-06-18T18:58:19.155Z,100793.91
2018-06-18T19:00:50.413Z,100800.37
2018-06-18T19:03:19.946Z,100804.64
2018-06-18T19:05:47.833Z,100797.45
2018-06-18T19:08:17.327Z,100802.22
2018-06-18T19:10:45.498Z,100807.45
2018-06-18T19:13:17.654Z,100813.33
2018-06-18T19:15:46.323Z,100817.16
2018-06-18T19:18:14.167Z,100825.04
2018-06-18T19:20:43.726Z,100823.47
2018-06-18T19:23:10.712Z,100827.94
2018-06-18T19:25:40.604Z,100821.98
2018-06-18T19:28:07.590Z,100829.63
2018-06-18T19:30:36.123Z,100825.12
2018-06-18T19:33:07.602Z,100829.98
2018-06-18T19:35:35.534Z,100832.27
2018-06-18T19:38:02.468Z,100829.56
2018-06-18T19:40:29.482Z,100831.67
2018-06-18T19:42:56.477Z,100827.13
2018-06-18T19:45:26.886Z,100826.25
2018-06-18T19:48:09.038Z,100834.69
2018-06-18T19:50:44.922Z,100839.97
2018-06-18T19:53:15.124Z,100844.27
2018-06-18T19:55:43.202Z,100841.59
2018-06-18T19:58:12.762Z,100842.48
2018-06-18T20:00:48.849Z,100845.95
2018-06-18T20:03:15.885Z,100856.17
2018-06-18T20:05:45.873Z,100856.17
2018-06-18T20:08:17.226Z,100851.50
2018-06-18T20:10:45.418Z,100854.23
2018-06-18T20:13:13.395Z,100863.67
2018-06-18T20:15:44.386Z,100868.23
2018-06-18T20:18:12.828Z,100870.38
2018-06-18T20:20:40.900Z,100863.63
2018-06-18T20:23:11.065Z,100868.65
2018-06-18T20:25:42.681Z,100867.92
2018-06-18T20:28:13.038Z,100873.48
2018-06-18T20:30:40.931Z,100879.07
2018-06-18T20:33:15.747Z,100880.70
2018-06-18T20:35:52.594Z,100883.50
2018-06-18T20:38:19.482Z,100877.84
2018-06-18T20:40:49.111Z,100880.17
2018-06-18T20:43:18.120Z,100887.52
2018-06-18T20:45:45.591Z,100885.57
2018-06-18T20:48:14.597Z,100884.95
2018-06-18T20:50:42.098Z,100887.28
2018-06-18T20:53:17.719Z,100884.13
2018-06-18T20:55:45.602Z,100879.55
2018-06-18T20:58:13.221Z,100882.23
2018-06-18T21:00:40.088Z,100884.09
2018-06-18T21:03:06.986Z,100882.03
2018-06-18T21:05:35.590Z,100877.41
2018-06-18T21:08:02.542Z,100884.16
2018-06-18T21:10:34.498Z,100889.77
2018-06-18T21:13:08.258Z,100891.74
2018-06-18T21:15:35.179Z,100898.58
2018-06-18T21:18:02.125Z,100896.52
2018-06-18T21:20:29.178Z,100891.86
2018-06-18T21:23:00.086Z,100902.62
2018-06-18T21:25:28.033Z,100898.08
2018-06-18T21:27:55.010Z,100900.64
2018-06-18T21:30:22.638Z,100906.61
2018-06-18T21:32:52.657Z,100900.63
2018-06-18T21:35:20.426Z,100899.32
2018-06-18T21:37:49.138Z,100905.55
2018-06-18T21:40:18.686Z,100905.33
2018-06-18T21:42:50.077Z,100910.93
2018-06-18T21:48:04.430Z,100894.16
2018-06-18T21:50:31.401Z,100891.01
2018-06-18T21:52:58.271Z,100893.22
2018-06-18T21:55:25.235Z,100889.05
2018-06-18T21:57:53.156Z,100884.80
2018-06-18T22:00:27.496Z,100894.27
2018-06-18T22:02:55.218Z,100896.98
2018-06-18T22:05:22.167Z,100892.20
2018-06-18T22:07:49.162Z,100896.09
2018-06-18T22:10:16.083Z,100886.42
2018-06-18T22:12:45.991Z,100883.34
2018-06-18T22:15:15.918Z,100882.45
2018-06-18T22:17:47.590Z,100880.23
2018-06-18T22:20:14.537Z,100884.47
2018-06-18T22:22:41.546Z,100883.67
2018-06-18T22:25:14.539Z,100879.39
2018-06-18T22:27:45.162Z,100881.18
2018-06-18T22:30:15.698Z,100879.23
2018-06-18T22:32:46.287Z,100878.84
2018-06-18T22:35:14.118Z,100883.12
2018-06-18T22:37:42.558Z,100882.89
2018-06-18T22:40:10.174Z,100884.27
2018-06-18T22:42:42.962Z,100888.59
2018-06-18T22:45:13.410Z,100892.26
2018-06-18T22:47:40.385Z,100885.09
2018-06-18T22:50:11.222Z,100889.44
2018-06-18T22:52:45.555Z,100886.80
2018-06-18T22:55:15.454Z,100889.46
2018-06-18T22:57:42.303Z,100888.70
2018-06-18T23:00:09.310Z,100897.18
2018-06-18T23:02:37.194Z,100893.03
2018-06-18T23:05:06.682Z,100892.99
2018-06-18T23:07:42.656Z,100901.33
2018-06-18T23:10:14.418Z,100900.35
2018-06-18T23:12:43.950Z,100900.33
2018-06-18T23:15:14.223Z,100899.77
2018-06-18T23:17:49.643Z,100900.41
2018-06-18T23:20:19.530Z,100905.04
2018-06-18T23:22:50.382Z,100904.74
2018-06-18T23:25:20.217Z,100904.08
2018-06-18T23:27:50.561Z,100907.08
2018-06-18T23:30:17.421Z,100902.41
2018-06-18T23:32:46.245Z,100898.79
2018-06-18T23:35:19.337Z,100905.69
2018-06-18T23:37:49.267Z,100911.96
2018-06-18T23:40:16.226Z,100914.83
2018-06-18T23:42:43.690Z,100915.92
2018-06-18T23:45:14.234Z,100915.88
2018-06-18T23:47:42.198Z,100921.09
2018-06-18T23:50:11.218Z,100919.73
2018-06-18T23:52:39.765Z,100917.74
2018-06-18T23:55:11.412Z,100924.56
2018-06-18T23:57:40.232Z,100927.23
